createdAt,value
2024-02-14T07:44:00.434Z,8.10
2024-02-14T07:46:28.641Z,6.40
2024-02-14T07:48:56.605Z,7.30
2024-02-14T07:51:25.257Z,7.47
2024-02-14T07:53:53.040Z,8.43
2024-02-14T07:56:21.401Z,9.80
2024-02-14T07:58:50.958Z,4.67
2024-02-14T08:01:20.927Z,5.33
2024-02-14T08:03:48.824Z,5.53
2024-02-14T08:06:16.914Z,7.47
2024-02-14T08:08:50.477Z,9.87
2024-02-14T08:11:18.818Z,4.07
2024-02-14T08:13:46.702Z,5.10
2024-02-14T08:16:18.722Z,5.97
2024-02-14T08:21:48.743Z,5.27
2024-02-14T08:27:16.429Z,6.77
2024-02-14T08:29:46.980Z,9.03
2024-02-14T08:32:23.855Z,12.13
2024-02-14T08:35:02.915Z,8.93
2024-02-14T08:37:41.976Z,7.57
2024-02-14T08:40:27.739Z,10.03
2024-02-14T08:43:14.697Z,7.77
2024-02-14T08:45:53.400Z,7.67
2024-02-14T08:48:36.774Z,9.50
2024-02-14T08:51:24.669Z,9.40
2024-02-14T08:54:09.588Z,6.50
2024-02-14T08:56:41.800Z,5.27
2024-02-14T08:59:20.014Z,7.60
2024-02-14T09:01:53.555Z,7.23
2024-02-14T09:07:47.421Z,7.80
2024-02-14T09:10:21.370Z,7.20
2024-02-14T09:12:55.343Z,10.27
2024-02-14T09:15:25.294Z,5.30
2024-02-14T09:20:40.446Z,9.27
2024-02-14T09:23:19.866Z,8.23
2024-02-14T09:25:52.042Z,8.67
2024-02-14T09:28:30.705Z,5.37
2024-02-14T09:31:09.548Z,8.97
2024-02-14T09:36:38.796Z,6.90
2024-02-14T09:45:02.662Z,6.47
2024-02-14T09:47:35.938Z,7.20
2024-02-14T09:50:21.144Z,6.10
2024-02-14T09:52:53.545Z,8.83
2024-02-14T09:55:28.219Z,7.37
2024-02-14T09:57:57.635Z,10.70
2024-02-14T10:00:34.359Z,9.13
2024-02-14T10:03:09.020Z,7.43
2024-02-14T10:05:38.207Z,9.80
2024-02-14T10:08:25.447Z,7.83
2024-02-14T10:11:01.587Z,9.43
2024-02-14T10:13:32.744Z,10.10
2024-02-14T10:16:04.776Z,4.50
2024-02-14T10:18:34.715Z,5.17
2024-02-14T10:21:03.954Z,7.30
2024-02-14T10:23:34.046Z,6.37
2024-02-14T10:26:05.884Z,4.73
2024-02-14T10:28:40.823Z,7.23
2024-02-14T10:33:58.167Z,9.77
2024-02-14T10:36:26.463Z,5.67
2024-02-14T10:38:55.965Z,6.33
2024-02-14T10:41:25.970Z,4.43
2024-02-14T10:43:54.140Z,5.67
2024-02-14T10:46:24.696Z,7.17
2024-02-14T10:49:00.467Z,5.80
2024-02-14T10:51:32.955Z,9.70
2024-02-14T10:54:02.945Z,4.47
2024-02-14T10:56:34.200Z,5.23
2024-02-14T10:59:04.478Z,6.37
2024-02-14T11:01:35.840Z,5.07
2024-02-14T11:04:06.026Z,4.30
2024-02-14T11:06:34.778Z,4.83
2024-02-14T11:09:08.590Z,4.90
2024-02-14T11:11:38.201Z,5.30
2024-02-14T11:14:06.863Z,3.53
2024-02-14T11:16:35.080Z,7.07
2024-02-14T11:19:10.890Z,5.07
2024-02-14T11:21:40.190Z,3.80
2024-02-14T11:24:09.568Z,4.63
2024-02-14T11:26:48.196Z,4.40
2024-02-14T11:29:21.065Z,4.10
2024-02-14T11:31:51.392Z,5.13
2024-02-14T11:34:19.648Z,3.43
2024-02-14T11:36:47.731Z,5.03
2024-02-14T11:39:16.802Z,3.50
2024-02-14T11:41:46.552Z,3.83
2024-02-14T11:44:14.367Z,3.90
2024-02-14T11:46:43.194Z,3.03
2024-02-14T11:49:11.509Z,5.13
2024-02-14T11:51:39.764Z,5.37
2024-02-14T11:54:08.766Z,5.10
2024-02-14T11:56:39.207Z,3.33
2024-02-14T11:59:11.048Z,3.60
2024-02-14T12:01:40.254Z,3.47
2024-02-14T12:04:10.793Z,2.60
2024-02-14T12:06:39.402Z,2.97
2024-02-14T12:09:10.474Z,6.13
2024-02-14T12:11:39.516Z,4.47
2024-02-14T12:14:09.227Z,3.43
2024-02-14T12:16:38.620Z,5.20
2024-02-14T12:19:10.410Z,3.93
2024-02-14T12:21:39.266Z,3.83
2024-02-14T12:24:09.082Z,2.13
2024-02-14T12:26:38.124Z,3.43
2024-02-14T12:29:06.378Z,2.80
2024-02-14T12:31:35.851Z,4.03
2024-02-14T12:34:06.216Z,4.67
2024-02-14T12:36:35.089Z,7.67
2024-02-14T12:39:04.568Z,3.73
2024-02-14T12:41:34.755Z,3.00
2024-02-14T12:44:02.623Z,4.87
2024-02-14T12:46:30.910Z,6.97
2024-02-14T12:49:03.806Z,2.77
2024-02-14T12:51:32.622Z,1.90
2024-02-14T12:54:00.538Z,2.03
2024-02-14T12:56:28.475Z,3.87
2024-02-14T12:58:56.251Z,3.83
2024-02-14T13:01:24.214Z,3.87
2024-02-14T13:03:52.204Z,3.87
2024-02-14T13:06:21.995Z,2.20
2024-02-14T13:08:49.968Z,1.90
2024-02-14T13:11:19.975Z,4.63
2024-02-14T13:13:47.777Z,5.17
2024-02-14T13:16:15.650Z,6.20
2024-02-14T13:18:43.600Z,2.83
2024-02-14T13:21:11.610Z,3.60
2024-02-14T13:23:41.743Z,5.53
2024-02-14T13:26:09.937Z,2.73
2024-02-14T13:28:37.721Z,5.13
2024-02-14T13:31:05.844Z,4.53
2024-02-14T13:33:33.877Z,3.47
2024-02-14T13:36:01.791Z,3.27
2024-02-14T13:38:30.049Z,3.60
2024-02-14T13:41:00.248Z,3.23
2024-02-14T13:43:28.041Z,4.43
2024-02-14T13:45:56.027Z,3.93
2024-02-14T13:48:24.019Z,5.47
2024-02-14T13:50:52.980Z,3.97
2024-02-14T13:53:20.834Z,5.73
2024-02-14T13:55:48.737Z,3.97
2024-02-14T13:58:18.531Z,3.63
2024-02-14T14:00:46.566Z,3.20
2024-02-14T14:03:14.646Z,3.90
2024-02-14T14:05:42.659Z,5.97
2024-02-14T14:08:10.570Z,4.80
2024-02-14T14:10:38.371Z,4.60
2024-02-14T14:13:06.521Z,3.90
2024-02-14T14:15:35.735Z,6.90
2024-02-14T14:18:03.867Z,5.33
2024-02-14T14:20:32.071Z,4.03
2024-02-14T14:23:00.594Z,3.27
2024-02-14T14:25:29.076Z,3.30
2024-02-14T14:27:56.827Z,3.03
2024-02-14T14:30:25.051Z,4.60
2024-02-14T14:32:54.453Z,2.20
2024-02-14T14:35:22.635Z,4.73
2024-02-14T14:37:50.579Z,2.50
2024-02-14T14:40:18.594Z,3.63
2024-02-14T14:42:46.784Z,5.33
2024-02-14T14:45:14.891Z,2.80
2024-02-14T14:47:42.899Z,4.77
2024-02-14T14:50:12.441Z,5.43
2024-02-14T14:52:40.417Z,5.33
2024-02-14T14:55:08.679Z,6.60
2024-02-14T14:57:41.304Z,6.93
2024-02-14T15:00:11.419Z,9.90
2024-02-14T15:02:41.568Z,3.77
2024-02-14T15:05:13.231Z,3.90
2024-02-14T15:07:41.472Z,4.37
2024-02-14T15:10:11.857Z,4.03
2024-02-14T15:12:39.936Z,2.73
2024-02-14T15:15:09.476Z,7.43
2024-02-14T15:17:38.195Z,3.07
2024-02-14T15:20:07.611Z,2.47
2024-02-14T15:22:37.022Z,3.03
2024-02-14T15:25:05.468Z,2.37
2024-02-14T15:27:34.024Z,1.70
2024-02-14T15:30:19.738Z,3.70
2024-02-14T15:33:05.050Z,3.33
2024-02-14T15:35:34.068Z,5.30
2024-02-14T15:38:03.815Z,2.23
2024-02-14T15:40:34.717Z,2.87
2024-02-14T15:43:04.785Z,3.53
2024-02-14T15:45:32.763Z,2.37
2024-02-14T15:48:02.332Z,1.93
2024-02-14T15:50:30.421Z,5.33
2024-02-14T15:52:58.365Z,4.53
2024-02-14T15:55:28.809Z,2.83
2024-02-14T15:57:58.168Z,5.07
2024-02-14T16:00:28.481Z,2.80
2024-02-14T16:02:56.741Z,2.00
2024-02-14T16:05:27.926Z,1.40
2024-02-14T16:07:56.859Z,1.97
2024-02-14T16:10:25.137Z,2.90
2024-02-14T16:12:55.574Z,3.17
2024-02-14T16:15:28.394Z,4.30
2024-02-14T16:18:00.097Z,1.90
2024-02-14T16:20:29.227Z,2.03
2024-02-14T16:23:01.226Z,2.07
2024-02-14T16:25:32.288Z,3.60
2024-02-14T16:28:03.884Z,1.73
2024-02-14T16:30:35.313Z,2.37
2024-02-14T16:33:04.702Z,3.47
2024-02-14T16:35:39.853Z,1.93
2024-02-14T16:38:10.556Z,2.63
2024-02-14T16:40:41.876Z,2.80
2024-02-14T16:43:15.068Z,1.43
2024-02-14T16:45:46.858Z,1.97
2024-02-14T16:48:16.233Z,3.67
2024-02-14T16:50:45.786Z,2.00
2024-02-14T16:53:13.600Z,2.10
2024-02-14T16:55:41.490Z,2.70
2024-02-14T16:58:09.337Z,2.20
2024-02-14T17:00:38.731Z,2.63
2024-02-14T17:03:12.158Z,2.70
2024-02-14T17:05:44.639Z,2.27
2024-02-14T17:08:12.867Z,5.87
2024-02-14T17:10:40.977Z,2.40
2024-02-14T17:13:10.059Z,2.73
2024-02-14T17:15:39.361Z,3.30
2024-02-14T17:18:09.627Z,3.60
2024-02-14T17:20:37.690Z,2.37
2024-02-14T17:23:05.904Z,3.13
2024-02-14T17:25:33.980Z,4.90
2024-02-14T17:28:01.887Z,3.40
2024-02-14T17:30:29.959Z,5.47
2024-02-14T17:32:59.813Z,3.23
2024-02-14T17:38:57.665Z,2.20
2024-02-14T17:41:30.193Z,3.07
2024-02-14T17:44:07.410Z,2.43
2024-02-14T17:46:39.013Z,2.20
2024-02-14T17:52:13.856Z,2.97
2024-02-14T17:58:26.653Z,2.77
2024-02-14T18:01:15.330Z,2.90
2024-02-14T18:43:08.529Z,2.00
2024-02-14T18:49:24.481Z,2.30
2024-02-14T18:55:57.971Z,3.80
2024-02-14T19:02:42.929Z,2.70
2024-02-14T19:25:07.489Z,4.03
2024-02-14T19:28:35.463Z,5.13
2024-02-14T19:31:53.751Z,4.83
2024-02-14T19:34:55.600Z,6.80
2024-02-14T19:43:59.724Z,4.30
2024-02-14T19:50:58.087Z,4.90
2024-02-14T20:20:15.842Z,3.90
